Pine Valley, California
Current Conditions -  °F | °C
As of 11:53 PM on Friday 24 Oct 2014 (Local Time) from KRNM Reporting Station
Clear Clear  
Wind Chill: 14°   Ceiling: Unl
Heat Index: 14°   Visibility: 10mi
Dew Point:   Wind: 3mph
Humidity: 41%   Direction: 100°E
Pressure: 30.04"   Gusts: NA
Location:  32.86°N, 116.5°W
Report Text: KRNM 250653Z 10003KT 10SM CLR 14/01 A3004 RMK AO2 SLP158 T01440011
Loading
Personal Weather Stations






























Interactive Weather Map
Tropical Storm Tracking
New forecast layout! Learn more

10-Day Weather Forecast

Advertisements
Track Severe Weather on mobile